sensor_id;sensor_type;location;lat;lon;timestamp;pressure;altitude;pressure_sealevel;temperature;humidity
14790;BME280;7486;51.010;10.366;2023-02-23T00:00:09;97892.94;;;6.02;75.54
14790;BME280;7486;51.010;10.366;2023-02-23T00:02:36;97897.16;;;6.03;75.26
14790;BME280;7486;51.010;10.366;2023-02-23T00:05:03;97899.19;;;6.01;74.86
14790;BME280;7486;51.010;10.366;2023-02-23T00:07:30;97899.19;;;6.01;75.04
14790;BME280;7486;51.010;10.366;2023-02-23T00:09:56;97900.81;;;6.02;74.89
14790;BME280;7486;51.010;10.366;2023-02-23T00:12:23;97894.75;;;6.01;75.00
14790;BME280;7486;51.010;10.366;2023-02-23T00:14:50;97867.56;;;5.80;75.70
14790;BME280;7486;51.010;10.366;2023-02-23T00:17:16;97893.75;;;6.02;76.43
14790;BME280;7486;51.010;10.366;2023-02-23T00:19:46;97877.91;;;5.96;75.99
14790;BME280;7486;51.010;10.366;2023-02-23T00:22:13;97866.94;;;5.92;76.12
14790;BME280;7486;51.010;10.366;2023-02-23T00:24:40;97895.69;;;6.15;76.22
14790;BME280;7486;51.010;10.366;2023-02-23T00:27:06;97889.44;;;6.16;75.82
14790;BME280;7486;51.010;10.366;2023-02-23T00:29:33;97868.75;;;6.13;75.49
14790;BME280;7486;51.010;10.366;2023-02-23T00:32:00;97886.31;;;6.27;75.32
14790;BME280;7486;51.010;10.366;2023-02-23T00:34:27;97887.56;;;6.31;75.00
14790;BME280;7486;51.010;10.366;2023-02-23T00:36:54;97889.22;;;6.32;74.83
14790;BME280;7486;51.010;10.366;2023-02-23T00:39:22;97888.22;;;6.33;74.79
14790;BME280;7486;51.010;10.366;2023-02-23T00:41:49;97879.44;;;6.26;74.58
14790;BME280;7486;51.010;10.366;2023-02-23T00:44:17;97885.53;;;6.27;74.57
14790;BME280;7486;51.010;10.366;2023-02-23T00:46:44;97893.19;;;6.28;74.85
14790;BME280;7486;51.010;10.366;2023-02-23T00:49:12;97861.88;;;6.12;74.57
14790;BME280;7486;51.010;10.366;2023-02-23T00:51:40;97873.53;;;6.24;74.67
14790;BME280;7486;51.010;10.366;2023-02-23T00:54:09;97886.31;;;6.27;74.48
14790;BME280;7486;51.010;10.366;2023-02-23T00:56:37;97896.09;;;6.33;74.33
14790;BME280;7486;51.010;10.366;2023-02-23T00:59:04;97889.22;;;6.32;73.94
14790;BME280;7486;51.010;10.366;2023-02-23T01:01:31;97891.41;;;6.29;73.67
14790;BME280;7486;51.010;10.366;2023-02-23T01:04:00;97893.00;;;6.08;74.65
14790;BME280;7486;51.010;10.366;2023-02-23T01:06:28;97895.50;;;6.16;74.68
14790;BME280;7486;51.010;10.366;2023-02-23T01:08:56;97891.69;;;6.19;74.59
14790;BME280;7486;51.010;10.366;2023-02-23T01:11:25;97897.50;;;6.14;74.03
14790;BME280;7486;51.010;10.366;2023-02-23T01:13:55;97862.41;;;5.86;74.35
14790;BME280;7486;51.010;10.366;2023-02-23T01:16:25;97903.97;;;6.12;74.45
14790;BME280;7486;51.010;10.366;2023-02-23T01:18:58;97899.69;;;6.11;74.38
14790;BME280;7486;51.010;10.366;2023-02-23T01:21:31;97898.44;;;6.07;74.38
14790;BME280;7486;51.010;10.366;2023-02-23T01:23:58;97903.81;;;5.99;74.44
14790;BME280;7486;51.010;10.366;2023-02-23T01:26:28;97897.09;;;5.96;74.48
14790;BME280;7486;51.010;10.366;2023-02-23T01:28:58;97861.44;;;5.73;74.61
14790;BME280;7486;51.010;10.366;2023-02-23T01:31:26;97898.47;;;5.92;74.75
14790;BME280;7486;51.010;10.366;2023-02-23T01:33:58;97900.75;;;5.95;74.90
14790;BME280;7486;51.010;10.366;2023-02-23T01:36:25;97888.75;;;5.93;74.81
14790;BME280;7486;51.010;10.366;2023-02-23T01:38:52;97893.22;;;5.92;74.90
14790;BME280;7486;51.010;10.366;2023-02-23T01:41:20;97895.41;;;5.89;74.88
14790;BME280;7486;51.010;10.366;2023-02-23T01:44:06;97898.66;;;5.91;74.70
14790;BME280;7486;51.010;10.366;2023-02-23T01:46:36;97896.41;;;5.88;74.69
14790;BME280;7486;51.010;10.366;2023-02-23T01:49:05;97897.00;;;5.90;74.80
14790;BME280;7486;51.010;10.366;2023-02-23T01:51:39;97894.75;;;5.87;74.62
14790;BME280;7486;51.010;10.366;2023-02-23T01:54:16;97894.75;;;5.87;74.58
14790;BME280;7486;51.010;10.366;2023-02-23T01:56:50;97901.66;;;5.88;74.78
14790;BME280;7486;51.010;10.366;2023-02-23T01:59:18;97895.41;;;5.89;74.52
14790;BME280;7486;51.010;10.366;2023-02-23T02:01:44;97889.13;;;5.90;74.37
14790;BME280;7486;51.010;10.366;2023-02-23T02:04:14;97876.47;;;5.79;74.03
14790;BME280;7486;51.010;10.366;2023-02-23T02:06:44;97898.03;;;5.89;74.23
14790;BME280;7486;51.010;10.366;2023-02-23T02:09:14;97893.75;;;5.88;74.11
14790;BME280;7486;51.010;10.366;2023-02-23T02:11:42;97889.50;;;5.87;74.23
14790;BME280;7486;51.010;10.366;2023-02-23T02:14:11;97887.06;;;5.85;74.23
14790;BME280;7486;51.010;10.366;2023-02-23T02:30:28;97887.09;;;5.71;74.79
14790;BME280;7486;51.010;10.366;2023-02-23T02:46:31;97888.25;;;5.24;75.53
14790;BME280;7486;51.010;10.366;2023-02-23T02:54:32;97888.13;;;5.03;77.84
14790;BME280;7486;51.010;10.366;2023-02-23T02:57:02;97882.59;;;4.98;77.53
14790;BME280;7486;51.010;10.366;2023-02-23T02:59:41;97830.69;;;4.71;77.96
14790;BME280;7486;51.010;10.366;2023-02-23T03:02:18;97884.13;;;5.07;77.83
14790;BME280;7486;51.010;10.366;2023-02-23T03:04:46;97880.81;;;5.13;77.72
14790;BME280;7486;51.010;10.366;2023-02-23T03:07:25;97877.13;;;5.22;77.66
14790;BME280;7486;51.010;10.366;2023-02-23T03:10:02;97882.09;;;5.32;77.65
14790;BME280;7486;51.010;10.366;2023-02-23T03:12:38;97885.47;;;5.40;77.33
14790;BME280;7486;51.010;10.366;2023-02-23T03:20:53;97879.94;;;5.50;76.53
14790;BME280;7486;51.010;10.366;2023-02-23T03:29:08;97880.47;;;5.45;75.80
14790;BME280;7486;51.010;10.366;2023-02-23T03:34:53;97844.63;;;5.23;75.87
14790;BME280;7486;51.010;10.366;2023-02-23T03:37:47;97885.09;;;5.43;76.11
14790;BME280;7486;51.010;10.366;2023-02-23T03:40:25;97883.47;;;5.42;75.93
14790;BME280;7486;51.010;10.366;2023-02-23T03:42:56;97885.28;;;5.42;75.85
14790;BME280;7486;51.010;10.366;2023-02-23T03:45:25;97883.31;;;5.44;76.24
14790;BME280;7486;51.010;10.366;2023-02-23T03:47:54;97881.28;;;5.46;76.05
14790;BME280;7486;51.010;10.366;2023-02-23T03:50:33;97889.81;;;5.48;75.61
14790;BME280;7486;51.010;10.366;2023-02-23T03:53:05;97883.75;;;5.47;75.60
14790;BME280;7486;51.010;10.366;2023-02-23T03:55:36;97871.53;;;5.40;75.58
14790;BME280;7486;51.010;10.366;2023-02-23T03:58:08;97884.75;;;5.46;75.93
14790;BME280;7486;51.010;10.366;2023-02-23T04:00:43;97880.47;;;5.45;75.86
14790;BME280;7486;51.010;10.366;2023-02-23T04:03:12;97857.03;;;5.29;75.73
14790;BME280;7486;51.010;10.366;2023-02-23T04:05:42;97888.34;;;5.45;75.85
14790;BME280;7486;51.010;10.366;2023-02-23T04:08:13;97885.72;;;5.45;75.31
14790;BME280;7486;51.010;10.366;2023-02-23T04:10:49;97854.78;;;5.26;75.47
14790;BME280;7486;51.010;10.366;2023-02-23T04:13:20;97887.72;;;5.43;75.40
14790;BME280;7486;51.010;10.366;2023-02-23T04:16:09;97889.53;;;5.43;75.53
14790;BME280;7486;51.010;10.366;2023-02-23T04:18:37;97884.44;;;5.41;75.45
14790;BME280;7486;51.010;10.366;2023-02-23T04:21:05;97885.47;;;5.40;75.97
14790;BME280;7486;51.010;10.366;2023-02-23T04:23:33;97886.91;;;5.43;75.59
14790;BME280;7486;51.010;10.366;2023-02-23T04:26:01;97889.72;;;5.41;75.90
14790;BME280;7486;51.010;10.366;2023-02-23T04:28:27;97873.78;;;5.28;76.06
14790;BME280;7486;51.010;10.366;2023-02-23T04:30:54;97872.78;;;5.29;75.88
14790;BME280;7486;51.010;10.366;2023-02-23T04:33:21;97895.78;;;5.42;75.64
14790;BME280;7486;51.010;10.366;2023-02-23T04:35:48;97893.34;;;5.40;75.78
14790;BME280;7486;51.010;10.366;2023-02-23T04:38:17;97903.84;;;5.40;75.72
14790;BME280;7486;51.010;10.366;2023-02-23T04:40:44;97897.59;;;5.41;75.96
14790;BME280;7486;51.010;10.366;2023-02-23T04:43:11;97889.44;;;5.36;76.17
14790;BME280;7486;51.010;10.366;2023-02-23T04:45:38;97893.00;;;5.43;76.23
14790;BME280;7486;51.010;10.366;2023-02-23T04:48:05;97891.34;;;5.42;76.10
14790;BME280;7486;51.010;10.366;2023-02-23T04:50:32;97890.16;;;5.45;76.27
14790;BME280;7486;51.010;10.366;2023-02-23T04:52:59;97896.22;;;5.45;76.14
14790;BME280;7486;51.010;10.366;2023-02-23T04:55:25;97891.63;;;5.47;75.90
14790;BME280;7486;51.010;10.366;2023-02-23T04:57:57;97894.72;;;5.51;76.01
14790;BME280;7486;51.010;10.366;2023-02-23T05:00:24;97893.91;;;5.50;76.25
14790;BME280;7486;51.010;10.366;2023-02-23T05:02:51;97898.78;;;5.53;76.34
14790;BME280;7486;51.010;10.366;2023-02-23T05:05:18;97901.41;;;5.53;76.03
14790;BME280;7486;51.010;10.366;2023-02-23T05:07:45;97886.91;;;5.43;76.29
14790;BME280;7486;51.010;10.366;2023-02-23T05:10:14;97909.91;;;5.55;76.18
14790;BME280;7486;51.010;10.366;2023-02-23T05:12:41;97903.66;;;5.56;76.03
14790;BME280;7486;51.010;10.366;2023-02-23T05:15:08;97906.13;;;5.58;76.23
14790;BME280;7486;51.010;10.366;2023-02-23T05:17:37;97905.94;;;5.59;76.05
14790;BME280;7486;51.010;10.366;2023-02-23T05:20:04;97904.28;;;5.58;76.24
14790;BME280;7486;51.010;10.366;2023-02-23T05:22:31;97908.56;;;5.59;76.22
14790;BME280;7486;51.010;10.366;2023-02-23T05:24:58;97903.31;;;5.59;76.26
14790;BME280;7486;51.010;10.366;2023-02-23T05:27:24;97898.03;;;5.59;76.12
14790;BME280;7486;51.010;10.366;2023-02-23T05:29:51;97900.31;;;5.62;76.47
14790;BME280;7486;51.010;10.366;2023-02-23T05:32:18;97902.75;;;5.64;76.67
14790;BME280;7486;51.010;10.366;2023-02-23T05:34:44;97899.16;;;5.65;76.87
14790;BME280;7486;51.010;10.366;2023-02-23T05:37:11;97901.56;;;5.66;76.66
14790;BME280;7486;51.010;10.366;2023-02-23T05:39:38;97890.00;;;5.61;76.88
14790;BME280;7486;51.010;10.366;2023-02-23T05:42:04;97892.72;;;5.67;76.79
14790;BME280;7486;51.010;10.366;2023-02-23T05:44:31;97898.78;;;5.68;76.80
14790;BME280;7486;51.010;10.366;2023-02-23T05:46:58;97894.31;;;5.68;76.62
14790;BME280;7486;51.010;10.366;2023-02-23T05:49:24;97879.50;;;5.61;76.62
14790;BME280;7486;51.010;10.366;2023-02-23T05:51:51;97896.94;;;5.68;76.81
14790;BME280;7486;51.010;10.366;2023-02-23T05:54:18;97903.84;;;5.69;76.80
14790;BME280;7486;51.010;10.366;2023-02-23T05:56:44;97901.66;;;5.73;76.84
14790;BME280;7486;51.010;10.366;2023-02-23T05:59:11;97899.03;;;5.73;76.62
14790;BME280;7486;51.010;10.366;2023-02-23T06:01:38;97894.59;;;5.74;76.57
14790;BME280;7486;51.010;10.366;2023-02-23T06:04:04;97908.34;;;5.76;76.64
14790;BME280;7486;51.010;10.366;2023-02-23T06:06:31;97902.47;;;5.74;76.53
14790;BME280;7486;51.010;10.366;2023-02-23T06:08:58;97883.72;;;5.62;76.36
14790;BME280;7486;51.010;10.366;2023-02-23T06:11:25;97888.63;;;5.65;76.58
14790;BME280;7486;51.010;10.366;2023-02-23T06:13:52;97903.66;;;5.71;76.57
14790;BME280;7486;51.010;10.366;2023-02-23T06:16:18;97909.75;;;5.72;76.44
14790;BME280;7486;51.010;10.366;2023-02-23T06:18:45;97909.75;;;5.72;76.29
14790;BME280;7486;51.010;10.366;2023-02-23T06:21:12;97806.31;;;4.99;76.34
14790;BME280;7486;51.010;10.366;2023-02-23T06:23:38;97916.59;;;5.73;76.65
14790;BME280;7486;51.010;10.366;2023-02-23T06:26:05;97921.69;;;5.74;76.69
14790;BME280;7486;51.010;10.366;2023-02-23T06:28:32;97907.72;;;5.74;76.88
14790;BME280;7486;51.010;10.366;2023-02-23T06:30:59;97921.25;;;5.71;76.69
14790;BME280;7486;51.010;10.366;2023-02-23T06:33:26;97920.88;;;5.74;77.09
14790;BME280;7486;51.010;10.366;2023-02-23T06:35:53;97924.31;;;5.74;76.89
14790;BME280;7486;51.010;10.366;2023-02-23T06:38:20;97924.69;;;5.71;77.06
14790;BME280;7486;51.010;10.366;2023-02-23T06:40:47;97933.38;;;5.72;77.10
14790;BME280;7486;51.010;10.366;2023-02-23T06:43:14;97928.94;;;5.72;77.35
14790;BME280;7486;51.010;10.366;2023-02-23T06:45:40;97936.47;;;5.75;77.28
14790;BME280;7486;51.010;10.366;2023-02-23T06:48:07;97936.28;;;5.77;77.17
14790;BME280;7486;51.010;10.366;2023-02-23T06:50:34;97940.53;;;5.78;77.09
14790;BME280;7486;51.010;10.366;2023-02-23T06:53:01;97941.16;;;5.80;77.26
14790;BME280;7486;51.010;10.366;2023-02-23T06:55:27;97932.28;;;5.81;77.16
14790;BME280;7486;51.010;10.366;2023-02-23T06:57:54;97938.38;;;5.81;76.94
14790;BME280;7486;51.010;10.366;2023-02-23T07:00:21;97936.34;;;5.83;77.23
14790;BME280;7486;51.010;10.366;2023-02-23T07:02:48;97949.13;;;5.86;77.28
14790;BME280;7486;51.010;10.366;2023-02-23T07:05:14;97938.44;;;5.88;77.29
14790;BME280;7486;51.010;10.366;2023-02-23T07:07:41;97937.25;;;5.90;77.24
14790;BME280;7486;51.010;10.366;2023-02-23T07:10:09;97938.69;;;5.93;77.31
14790;BME280;7486;51.010;10.366;2023-02-23T07:12:36;97936.88;;;5.93;77.37
14790;BME280;7486;51.010;10.366;2023-02-23T07:15:03;97940.78;;;5.97;77.10
14790;BME280;7486;51.010;10.366;2023-02-23T07:17:30;97941.59;;;5.98;77.41
14790;BME280;7486;51.010;10.366;2023-02-23T07:19:56;97950.75;;;6.02;77.24
14790;BME280;7486;51.010;10.366;2023-02-23T07:22:23;97951.59;;;6.02;77.28
14790;BME280;7486;51.010;10.366;2023-02-23T07:24:50;97950.38;;;6.05;77.50
14790;BME280;7486;51.010;10.366;2023-02-23T07:27:17;97950.38;;;6.05;77.41
14790;BME280;7486;51.010;10.366;2023-02-23T07:29:43;97951.00;;;6.07;77.50
14790;BME280;7486;51.010;10.366;2023-02-23T07:32:10;97954.28;;;6.09;77.45
14790;BME280;7486;51.010;10.366;2023-02-23T07:34:37;97943.94;;;6.07;77.58
14790;BME280;7486;51.010;10.366;2023-02-23T07:37:03;97917.41;;;5.88;77.49
14790;BME280;7486;51.010;10.366;2023-02-23T07:39:30;97961.81;;;6.12;77.49
14790;BME280;7486;51.010;10.366;2023-02-23T07:41:57;97962.63;;;6.12;77.83
14790;BME280;7486;51.010;10.366;2023-02-23T07:44:23;97956.09;;;6.08;77.81
14790;BME280;7486;51.010;10.366;2023-02-23T07:46:50;97956.53;;;6.12;78.09
14790;BME280;7486;51.010;10.366;2023-02-23T07:49:17;97960.44;;;6.16;78.17
14790;BME280;7486;51.010;10.366;2023-02-23T07:51:43;97903.63;;;5.86;78.21
14790;BME280;7486;51.010;10.366;2023-02-23T07:54:12;97957.06;;;6.22;78.21
14790;BME280;7486;51.010;10.366;2023-02-23T07:56:39;97964.59;;;6.25;78.40
14790;BME280;7486;51.010;10.366;2023-02-23T07:59:06;97961.13;;;6.25;78.42
14790;BME280;7486;51.010;10.366;2023-02-23T08:01:33;97964.03;;;6.30;78.54
14790;BME280;7486;51.010;10.366;2023-02-23T08:03:59;97957.75;;;6.31;78.25
14790;BME280;7486;51.010;10.366;2023-02-23T08:06:26;97965.47;;;6.32;78.47
14790;BME280;7486;51.010;10.366;2023-02-23T08:08:53;97954.69;;;6.27;78.12
14790;BME280;7486;51.010;10.366;2023-02-23T08:11:20;97965.19;;;6.42;77.92
14790;BME280;7486;51.010;10.366;2023-02-23T08:13:46;97967.44;;;6.45;78.02
14790;BME280;7486;51.010;10.366;2023-02-23T08:16:13;97972.16;;;6.49;77.89
14790;BME280;7486;51.010;10.366;2023-02-23T08:18:40;97964.69;;;6.53;77.95
14790;BME280;7486;51.010;10.366;2023-02-23T08:21:09;97969.59;;;6.56;77.94
14790;BME280;7486;51.010;10.366;2023-02-23T08:23:36;97967.13;;;6.54;77.96
14790;BME280;7486;51.010;10.366;2023-02-23T08:26:03;97967.41;;;6.59;78.27
14790;BME280;7486;51.010;10.366;2023-02-23T08:28:30;97964.19;;;6.43;77.77
14790;BME280;7486;51.010;10.366;2023-02-23T08:30:57;97963.00;;;6.45;78.68
14790;BME280;7486;51.010;10.366;2023-02-23T08:33:24;97971.84;;;6.59;78.55
14790;BME280;7486;51.010;10.366;2023-02-23T08:35:53;97972.72;;;6.66;78.68
14790;BME280;7486;51.010;10.366;2023-02-23T08:38:20;97968.22;;;6.75;78.45
14790;BME280;7486;51.010;10.366;2023-02-23T08:40:46;97965.81;;;6.80;78.29
14790;BME280;7486;51.010;10.366;2023-02-23T08:43:13;97966.06;;;6.85;78.16
14790;BME280;7486;51.010;10.366;2023-02-23T08:45:40;97973.59;;;6.88;77.95
14790;BME280;7486;51.010;10.366;2023-02-23T08:48:07;97966.94;;;6.92;77.87
14790;BME280;7486;51.010;10.366;2023-02-23T08:50:33;97975.25;;;6.95;77.69
14790;BME280;7486;51.010;10.366;2023-02-23T08:53:00;97945.56;;;6.80;77.42
14790;BME280;7486;51.010;10.366;2023-02-23T08:55:27;97960.66;;;6.93;77.56
14790;BME280;7486;51.010;10.366;2023-02-23T08:57:53;97973.56;;;7.09;77.06
14790;BME280;7486;51.010;10.366;2023-02-23T09:00:20;97974.81;;;7.13;76.79
14790;BME280;7486;51.010;10.366;2023-02-23T09:02:47;97906.88;;;6.59;76.61
14790;BME280;7486;51.010;10.366;2023-02-23T09:05:14;97976.41;;;6.86;77.42
14790;BME280;7486;51.010;10.366;2023-02-23T09:07:41;97979.16;;;6.78;77.30
14790;BME280;7486;51.010;10.366;2023-02-23T09:10:11;97969.31;;;6.87;77.82
14790;BME280;7486;51.010;10.366;2023-02-23T09:12:38;97938.63;;;6.73;77.14
14790;BME280;7486;51.010;10.366;2023-02-23T09:15:05;97976.91;;;6.96;77.38
14790;BME280;7486;51.010;10.366;2023-02-23T09:17:32;97973.44;;;6.96;76.99
14790;BME280;7486;51.010;10.366;2023-02-23T09:19:59;97973.31;;;7.04;77.11
14790;BME280;7486;51.010;10.366;2023-02-23T09:22:26;97974.03;;;6.91;77.34
14790;BME280;7486;51.010;10.366;2023-02-23T09:24:52;97958.78;;;6.87;77.91
14790;BME280;7486;51.010;10.366;2023-02-23T09:27:19;97914.00;;;6.65;77.54
14790;BME280;7486;51.010;10.366;2023-02-23T09:29:45;97978.22;;;7.07;77.41
14790;BME280;7486;51.010;10.366;2023-02-23T09:32:12;97974.25;;;7.17;77.08
14790;BME280;7486;51.010;10.366;2023-02-23T09:34:39;97977.56;;;7.26;76.85
14790;BME280;7486;51.010;10.366;2023-02-23T09:37:06;97984.78;;;7.17;77.21
14790;BME280;7486;51.010;10.366;2023-02-23T09:39:32;97982.91;;;7.33;77.35
14790;BME280;7486;51.010;10.366;2023-02-23T09:45:23;97986.97;;;7.35;77.09
14790;BME280;7486;51.010;10.366;2023-02-23T09:48:08;97965.16;;;6.99;78.27
14790;BME280;7486;51.010;10.366;2023-02-23T09:50:39;97968.88;;;7.04;78.56
14790;BME280;7486;51.010;10.366;2023-02-23T09:55:47;97993.56;;;7.25;78.01
14790;BME280;7486;51.010;10.366;2023-02-23T09:58:21;97996.19;;;7.25;77.59
14790;BME280;7486;51.010;10.366;2023-02-23T10:03:33;97996.63;;;7.28;77.26
14790;BME280;7486;51.010;10.366;2023-02-23T10:06:05;97999.16;;;7.15;77.73
14790;BME280;7486;51.010;10.366;2023-02-23T10:11:28;97997.41;;;7.22;78.20
14790;BME280;7486;51.010;10.366;2023-02-23T10:14:07;98000.13;;;7.35;76.97
14790;BME280;7486;51.010;10.366;2023-02-23T10:16:48;97979.84;;;7.29;77.54
14790;BME280;7486;51.010;10.366;2023-02-23T10:21:56;98000.50;;;7.53;76.89
14790;BME280;7486;51.010;10.366;2023-02-23T10:24:36;97999.13;;;7.64;77.36
14790;BME280;7486;51.010;10.366;2023-02-23T10:27:18;97998.06;;;7.58;77.01
14790;BME280;7486;51.010;10.366;2023-02-23T10:29:51;97996.25;;;7.59;76.89
14790;BME280;7486;51.010;10.366;2023-02-23T10:34:48;98000.38;;;7.40;77.70
14790;BME280;7486;51.010;10.366;2023-02-23T10:37:18;97997.22;;;7.51;78.12
14790;BME280;7486;51.010;10.366;2023-02-23T10:39:45;97996.16;;;7.74;77.48
14790;BME280;7486;51.010;10.366;2023-02-23T10:42:19;98000.31;;;7.61;77.59
14790;BME280;7486;51.010;10.366;2023-02-23T10:44:47;97992.41;;;7.61;77.78
14790;BME280;7486;51.010;10.366;2023-02-23T10:47:18;97990.91;;;7.46;78.18
14790;BME280;7486;51.010;10.366;2023-02-23T10:49:51;98002.56;;;7.64;77.75
14790;BME280;7486;51.010;10.366;2023-02-23T10:52:28;97996.53;;;7.70;77.52
14790;BME280;7486;51.010;10.366;2023-02-23T10:54:58;97998.97;;;7.72;78.06
14790;BME280;7486;51.010;10.366;2023-02-23T10:57:30;97994.22;;;7.89;77.64
14790;BME280;7486;51.010;10.366;2023-02-23T11:02:44;97997.09;;;7.94;78.48
14790;BME280;7486;51.010;10.366;2023-02-23T11:05:28;98002.69;;;8.12;77.36
14790;BME280;7486;51.010;10.366;2023-02-23T11:11:19;97998.16;;;8.40;76.39
14790;BME280;7486;51.010;10.366;2023-02-23T11:13:49;97994.34;;;8.56;75.45
14790;BME280;7486;51.010;10.366;2023-02-23T11:16:41;97993.44;;;8.29;76.88
14790;BME280;7486;51.010;10.366;2023-02-23T11:19:21;97990.06;;;8.48;76.18
14790;BME280;7486;51.010;10.366;2023-02-23T11:21:50;97980.72;;;8.46;75.79
14790;BME280;7486;51.010;10.366;2023-02-23T11:26:50;97979.69;;;8.47;74.98
14790;BME280;7486;51.010;10.366;2023-02-23T11:29:26;97980.88;;;8.38;75.56
14790;BME280;7486;51.010;10.366;2023-02-23T11:31:57;97973.16;;;8.36;76.39
14790;BME280;7486;51.010;10.366;2023-02-23T11:34:32;97978.22;;;8.31;77.14
14790;BME280;7486;51.010;10.366;2023-02-23T11:37:26;97972.75;;;8.39;76.96
14790;BME280;7486;51.010;10.366;2023-02-23T11:42:25;97969.38;;;8.58;76.45
14790;BME280;7486;51.010;10.366;2023-02-23T11:45:25;97969.97;;;8.60;76.11
14790;BME280;7486;51.010;10.366;2023-02-23T11:47:56;97969.03;;;8.88;75.30
14790;BME280;7486;51.010;10.366;2023-02-23T11:50:29;97931.00;;;8.62;74.72
14790;BME280;7486;51.010;10.366;2023-02-23T11:53:03;97945.06;;;8.83;74.30
14790;BME280;7486;51.010;10.366;2023-02-23T11:55:32;97960.91;;;8.96;74.14
14790;BME280;7486;51.010;10.366;2023-02-23T12:01:01;97959.09;;;8.83;74.25
14790;BME280;7486;51.010;10.366;2023-02-23T12:03:31;97956.63;;;8.82;73.98
14790;BME280;7486;51.010;10.366;2023-02-23T12:05:58;97947.88;;;8.88;74.43
14790;BME280;7486;51.010;10.366;2023-02-23T12:11:18;97948.47;;;8.70;75.07
14790;BME280;7486;51.010;10.366;2023-02-23T12:13:54;97948.88;;;8.73;74.43
14790;BME280;7486;51.010;10.366;2023-02-23T12:16:30;97946.06;;;8.82;74.48
14790;BME280;7486;51.010;10.366;2023-02-23T12:26:58;97938.16;;;9.08;73.44
14790;BME280;7486;51.010;10.366;2023-02-23T12:30:07;97930.63;;;9.18;72.58
14790;BME280;7486;51.010;10.366;2023-02-23T12:37:55;97929.22;;;9.55;71.72
14790;BME280;7486;51.010;10.366;2023-02-23T12:40:27;97912.97;;;9.05;72.18
14790;BME280;7486;51.010;10.366;2023-02-23T12:43:18;97928.59;;;9.33;71.86
14790;BME280;7486;51.010;10.366;2023-02-23T12:51:17;97933.31;;;9.38;71.85
14790;BME280;7486;51.010;10.366;2023-02-23T12:53:46;97927.59;;;9.41;71.62
14790;BME280;7486;51.010;10.366;2023-02-23T12:59:20;97910.72;;;9.42;70.85
14790;BME280;7486;51.010;10.366;2023-02-23T13:01:58;97923.94;;;9.48;70.15
14790;BME280;7486;51.010;10.366;2023-02-23T13:13:40;97930.03;;;9.55;69.77
14790;BME280;7486;51.010;10.366;2023-02-23T13:21:53;97916.22;;;9.27;71.05
14790;BME280;7486;51.010;10.366;2023-02-23T13:24:34;97912.13;;;9.11;71.18
14790;BME280;7486;51.010;10.366;2023-02-23T13:27:23;97919.88;;;8.93;71.70
14790;BME280;7486;51.010;10.366;2023-02-23T13:29:53;97858.91;;;8.55;72.43
14790;BME280;7486;51.010;10.366;2023-02-23T13:32:26;97920.88;;;8.92;71.93
14790;BME280;7486;51.010;10.366;2023-02-23T13:34:57;97912.97;;;8.99;71.86
14790;BME280;7486;51.010;10.366;2023-02-23T13:37:34;97921.50;;;9.14;71.15
14790;BME280;7486;51.010;10.366;2023-02-23T13:43:21;97906.84;;;9.31;70.63
14790;BME280;7486;51.010;10.366;2023-02-23T13:52:01;97910.53;;;9.17;71.06
14790;BME280;7486;51.010;10.366;2023-02-23T13:54:33;97906.03;;;9.11;71.40
14790;BME280;7486;51.010;10.366;2023-02-23T13:57:03;97910.91;;;8.94;71.60
14790;BME280;7486;51.010;10.366;2023-02-23T13:59:41;97906.66;;;9.13;71.94
14790;BME280;7486;51.010;10.366;2023-02-23T14:04:49;97912.56;;;9.48;70.71
14790;BME280;7486;51.010;10.366;2023-02-23T14:07:22;97905.59;;;9.60;70.02
14790;BME280;7486;51.010;10.366;2023-02-23T14:09:54;97904.75;;;9.66;69.64
14790;BME280;7486;51.010;10.366;2023-02-23T14:14:50;97903.38;;;9.50;69.88
14790;BME280;7486;51.010;10.366;2023-02-23T14:28:01;97906.47;;;9.28;70.30
14790;BME280;7486;51.010;10.366;2023-02-23T14:30:43;97901.19;;;9.41;69.89
14790;BME280;7486;51.010;10.366;2023-02-23T14:33:34;97904.44;;;9.36;69.95
14790;BME280;7486;51.010;10.366;2023-02-23T14:38:59;97897.09;;;9.25;69.75
14790;BME280;7486;51.010;10.366;2023-02-23T14:41:50;97897.72;;;9.40;69.54
14790;BME280;7486;51.010;10.366;2023-02-23T14:44:37;97900.13;;;9.29;69.50
14790;BME280;7486;51.010;10.366;2023-02-23T14:47:07;97898.31;;;9.36;69.60
14790;BME280;7486;51.010;10.366;2023-02-23T14:49:42;97888.38;;;9.38;69.11
14790;BME280;7486;51.010;10.366;2023-02-23T14:52:18;97888.34;;;9.31;69.05
14790;BME280;7486;51.010;10.366;2023-02-23T14:54:48;97865.41;;;9.05;70.06
14790;BME280;7486;51.010;10.366;2023-02-23T14:57:20;97897.09;;;9.25;70.78
14790;BME280;7486;51.010;10.366;2023-02-23T14:59:59;97881.63;;;9.22;71.19
14790;BME280;7486;51.010;10.366;2023-02-23T15:02:28;97882.44;;;9.29;71.01
14790;BME280;7486;51.010;10.366;2023-02-23T15:04:55;97897.06;;;9.32;71.19
14790;BME280;7486;51.010;10.366;2023-02-23T15:07:39;97882.88;;;9.26;71.36
14790;BME280;7486;51.010;10.366;2023-02-23T15:10:21;97887.34;;;9.26;72.07
14790;BME280;7486;51.010;10.366;2023-02-23T15:12:49;97895.28;;;9.12;72.87
14790;BME280;7486;51.010;10.366;2023-02-23T15:15:19;97885.13;;;8.96;73.51
14790;BME280;7486;51.010;10.366;2023-02-23T15:17:48;97839.63;;;8.68;73.77
14790;BME280;7486;51.010;10.366;2023-02-23T15:20:20;97885.13;;;9.03;73.79
14790;BME280;7486;51.010;10.366;2023-02-23T15:22:50;97878.81;;;8.91;74.00
14790;BME280;7486;51.010;10.366;2023-02-23T15:25:20;97883.91;;;8.86;74.59
14790;BME280;7486;51.010;10.366;2023-02-23T15:27:47;97864.00;;;8.77;74.48
14790;BME280;7486;51.010;10.366;2023-02-23T15:30:24;97885.94;;;8.97;74.15
14790;BME280;7486;51.010;10.366;2023-02-23T15:33:09;97833.34;;;8.62;73.76
14790;BME280;7486;51.010;10.366;2023-02-23T15:35:44;97851.22;;;8.87;73.59
14790;BME280;7486;51.010;10.366;2023-02-23T15:38:28;97881.66;;;9.09;73.75
14790;BME280;7486;51.010;10.366;2023-02-23T15:41:35;97891.81;;;9.12;73.61
14790;BME280;7486;51.010;10.366;2023-02-23T15:44:24;97888.97;;;9.20;73.44
14790;BME280;7486;51.010;10.366;2023-02-23T15:47:05;97883.88;;;9.25;73.36
14790;BME280;7486;51.010;10.366;2023-02-23T15:49:37;97883.47;;;9.28;72.68
14790;BME280;7486;51.010;10.366;2023-02-23T15:52:14;97843.06;;;8.82;73.35